createdAt,value
2017-11-06T00:02:21.927Z,7.38
2017-11-06T00:04:49.682Z,7.26
2017-11-06T00:07:17.210Z,7.29
2017-11-06T00:09:44.826Z,7.29
2017-11-06T00:12:12.669Z,7.37
2017-11-06T00:14:40.219Z,7.30
2017-11-06T00:17:07.802Z,7.30
2017-11-06T00:19:35.619Z,7.30
2017-11-06T00:22:03.165Z,7.20
2017-11-06T00:24:30.834Z,7.39
2017-11-06T00:26:58.431Z,7.37
2017-11-06T00:29:26.019Z,7.28
2017-11-06T00:31:53.699Z,7.38
2017-11-06T00:34:21.240Z,7.44
2017-11-06T00:36:48.823Z,7.35
2017-11-06T00:39:16.417Z,7.48
2017-11-06T00:41:44.129Z,7.20
2017-11-06T00:44:11.662Z,7.35
2017-11-06T00:46:39.278Z,7.65
2017-11-06T00:49:06.809Z,7.81
2017-11-06T00:51:34.355Z,7.68
2017-11-06T00:54:01.935Z,7.88
2017-11-06T00:56:29.543Z,8.18
2017-11-06T00:58:57.094Z,8.11
2017-11-06T01:01:24.797Z,8.20
2017-11-06T01:03:52.377Z,8.06
2017-11-06T01:06:20.040Z,7.87
2017-11-06T01:08:47.623Z,8.05
2017-11-06T01:11:15.169Z,8.27
2017-11-06T01:13:42.725Z,8.03
2017-11-06T01:16:10.320Z,8.05
2017-11-06T01:18:37.850Z,7.97
2017-11-06T01:21:05.634Z,8.21
2017-11-06T01:23:33.235Z,8.31
2017-11-06T01:26:00.789Z,8.17
2017-11-06T01:28:28.351Z,8.13
2017-11-06T01:30:56.032Z,8.26
2017-11-06T01:33:23.582Z,8.47
2017-11-06T01:35:51.106Z,8.19
2017-11-06T01:38:18.703Z,8.53
2017-11-06T01:40:46.240Z,8.30
2017-11-06T01:43:13.799Z,8.14
2017-11-06T01:45:41.411Z,8.33
2017-11-06T01:48:09.368Z,8.38
2017-11-06T01:50:36.912Z,8.18
2017-11-06T01:53:04.619Z,8.28
2017-11-06T01:55:32.199Z,8.18
2017-11-06T01:57:59.803Z,8.13
2017-11-06T02:00:27.707Z,8.51
2017-11-06T02:02:55.288Z,8.09
2017-11-06T02:05:22.907Z,8.20
2017-11-06T02:07:50.635Z,8.30
2017-11-06T02:10:18.241Z,8.34
2017-11-06T02:12:45.793Z,7.96
2017-11-06T02:15:13.404Z,8.08
2017-11-06T02:17:40.966Z,7.79
2017-11-06T02:20:08.553Z,7.98
2017-11-06T02:22:36.188Z,7.65
2017-11-06T02:25:03.810Z,7.68
2017-11-06T02:27:31.408Z,7.75
2017-11-06T02:29:59.047Z,7.64
2017-11-06T02:32:26.675Z,7.42
2017-11-06T02:34:54.224Z,7.42
2017-11-06T02:37:21.762Z,7.58
2017-11-06T02:39:49.375Z,7.51
2017-11-06T02:42:16.974Z,7.66
2017-11-06T02:44:44.568Z,7.45
2017-11-06T02:47:12.263Z,7.33
2017-11-06T02:49:39.788Z,7.51
2017-11-06T02:52:07.723Z,7.57
2017-11-06T02:54:35.362Z,7.31
2017-11-06T02:57:02.919Z,7.49
2017-11-06T02:59:30.792Z,7.32
2017-11-06T03:01:58.401Z,7.25
2017-11-06T03:04:25.946Z,7.13
2017-11-06T03:06:53.493Z,7.42
2017-11-06T03:09:21.058Z,7.44
2017-11-06T03:11:48.664Z,7.40
2017-11-06T03:14:16.252Z,7.25
2017-11-06T03:16:43.828Z,7.23
2017-11-06T03:19:11.367Z,7.24
2017-11-06T03:21:38.956Z,7.42
2017-11-06T03:24:06.606Z,7.21
2017-11-06T03:26:34.154Z,7.08
2017-11-06T03:29:01.699Z,7.03
2017-11-06T03:31:29.305Z,7.15
2017-11-06T03:33:56.837Z,7.12
2017-11-06T03:36:24.374Z,7.14
2017-11-06T03:38:51.950Z,7.39
2017-11-06T03:41:19.490Z,7.64
2017-11-06T03:43:47.026Z,7.31
2017-11-06T03:46:14.608Z,7.10
2017-11-06T03:48:42.167Z,6.91
2017-11-06T03:51:09.765Z,6.79
2017-11-06T03:53:37.340Z,6.77
2017-11-06T03:56:04.983Z,6.67
2017-11-06T03:58:32.501Z,6.76
2017-11-06T04:01:00.153Z,6.68
2017-11-06T04:03:27.720Z,6.70
2017-11-06T04:05:55.274Z,6.54
2017-11-06T04:08:22.885Z,6.77
2017-11-06T04:10:50.690Z,6.81
2017-11-06T04:13:18.238Z,6.57
2017-11-06T04:15:45.835Z,6.51
2017-11-06T04:18:13.368Z,6.42
2017-11-06T04:20:40.964Z,6.51
2017-11-06T04:23:10.531Z,6.75
2017-11-06T04:25:38.095Z,6.49
2017-11-06T04:28:05.643Z,6.28
2017-11-06T04:30:33.222Z,6.40
2017-11-06T04:33:00.838Z,6.11
2017-11-06T04:35:28.425Z,6.10
2017-11-06T04:37:56.065Z,6.22
2017-11-06T04:40:23.602Z,6.13
2017-11-06T04:42:51.231Z,5.57
2017-11-06T04:45:18.894Z,5.22
2017-11-06T04:47:46.524Z,5.62
2017-11-06T04:50:14.117Z,5.49
2017-11-06T04:52:41.726Z,5.57
2017-11-06T04:55:09.272Z,5.47
2017-11-06T04:57:36.798Z,5.56
2017-11-06T05:00:07.561Z,5.44
2017-11-06T05:02:35.126Z,5.39
2017-11-06T05:05:03.092Z,5.32
2017-11-06T05:07:30.775Z,5.36
2017-11-06T05:09:58.383Z,4.94
2017-11-06T05:12:25.943Z,5.23
2017-11-06T05:14:53.629Z,5.52
2017-11-06T05:17:21.410Z,6.38
2017-11-06T05:19:49.029Z,6.47
2017-11-06T05:22:16.643Z,6.77
2017-11-06T05:24:44.243Z,7.18
2017-11-06T05:27:11.839Z,6.22
2017-11-06T05:29:39.411Z,7.00
2017-11-06T05:32:07.009Z,7.58
2017-11-06T05:34:34.780Z,7.88
2017-11-06T05:37:02.405Z,8.04
2017-11-06T05:39:30.062Z,8.48
2017-11-06T05:41:57.856Z,8.17
2017-11-06T05:44:25.679Z,8.87
2017-11-06T05:46:53.273Z,9.17
2017-11-06T05:49:20.943Z,9.28
2017-11-06T05:51:48.882Z,10.47
2017-11-06T05:54:16.523Z,11.15
2017-11-06T05:56:44.122Z,12.33
2017-11-06T05:59:11.746Z,11.71
2017-11-06T06:01:39.346Z,11.06
2017-11-06T06:04:06.944Z,11.59
2017-11-06T06:06:34.582Z,11.71
2017-11-06T06:09:02.403Z,13.40
2017-11-06T06:11:30.022Z,13.61
2017-11-06T06:13:57.659Z,13.59
2017-11-06T06:16:25.242Z,13.61
2017-11-06T06:18:52.882Z,14.15
2017-11-06T06:21:20.472Z,14.68
2017-11-06T06:23:48.091Z,14.87
2017-11-06T06:26:15.923Z,15.34
2017-11-06T06:28:43.471Z,15.05
2017-11-06T06:31:11.067Z,16.15
2017-11-06T06:33:38.800Z,15.65
2017-11-06T06:36:06.446Z,14.95
2017-11-06T06:38:34.075Z,16.03
2017-11-06T06:41:02.016Z,16.52
2017-11-06T06:43:29.695Z,16.51
2017-11-06T06:45:57.356Z,16.85
2017-11-06T06:48:25.100Z,16.81
2017-11-06T06:50:52.826Z,17.60
2017-11-06T06:53:20.423Z,18.54
2017-11-06T06:55:48.293Z,19.39
2017-11-06T06:58:15.931Z,18.50
2017-11-06T07:00:43.622Z,19.39
2017-11-06T07:03:11.747Z,19.26
2017-11-06T07:05:39.444Z,19.72
2017-11-06T07:08:07.812Z,19.10
2017-11-06T07:10:35.403Z,20.16
2017-11-06T07:13:03.008Z,20.44
2017-11-06T07:15:30.633Z,20.44
2017-11-06T07:17:58.273Z,20.95
2017-11-06T07:20:25.870Z,21.06
2017-11-06T07:22:53.530Z,21.86
2017-11-06T07:25:21.158Z,21.94
2017-11-06T07:27:48.743Z,22.37
2017-11-06T07:30:17.035Z,22.28
2017-11-06T07:32:44.675Z,22.22
2017-11-06T07:35:12.459Z,22.16
2017-11-06T07:37:40.157Z,21.94
2017-11-06T07:40:07.986Z,21.70
2017-11-06T07:42:36.248Z,22.57
2017-11-06T07:45:03.965Z,22.59
2017-11-06T07:47:31.712Z,22.91
2017-11-06T07:49:59.323Z,23.49
2017-11-06T07:52:26.947Z,22.46
2017-11-06T07:54:54.517Z,23.75
2017-11-06T07:57:22.151Z,23.16
2017-11-06T07:59:49.868Z,23.53
2017-11-06T08:02:18.454Z,23.35
2017-11-06T08:04:46.216Z,23.40
2017-11-06T08:07:13.858Z,23.54
2017-11-06T08:09:41.465Z,24.06
2017-11-06T08:12:09.885Z,24.52
2017-11-06T08:14:38.376Z,25.42
2017-11-06T08:17:08.025Z,24.81
2017-11-06T08:19:35.634Z,25.28
2017-11-06T08:22:03.263Z,24.63
2017-11-06T08:24:30.896Z,25.48
2017-11-06T08:26:58.715Z,25.47
2017-11-06T08:29:26.296Z,24.70
2017-11-06T08:31:53.999Z,24.32
2017-11-06T08:34:21.715Z,23.96
2017-11-06T08:36:49.373Z,25.43
2017-11-06T08:39:17.907Z,25.20
2017-11-06T08:41:45.668Z,24.82
2017-11-06T08:44:13.345Z,24.78
2017-11-06T08:46:40.943Z,24.00
2017-11-06T08:49:08.753Z,24.61
2017-11-06T08:51:36.524Z,24.49
2017-11-06T08:54:04.263Z,25.34
2017-11-06T08:56:31.828Z,24.72
2017-11-06T08:58:59.450Z,25.61
2017-11-06T09:01:27.924Z,25.67
2017-11-06T09:03:55.766Z,26.62
2017-11-06T09:06:23.528Z,27.73
2017-11-06T09:08:52.098Z,27.24
2017-11-06T09:11:19.723Z,26.14
2017-11-06T09:13:47.540Z,26.54
2017-11-06T09:16:16.092Z,26.97
2017-11-06T09:18:43.783Z,27.30
2017-11-06T09:21:12.358Z,26.39
2017-11-06T09:23:39.974Z,26.27
2017-11-06T09:26:07.627Z,26.38
2017-11-06T09:28:35.394Z,25.26
2017-11-06T09:31:03.042Z,25.18
2017-11-06T09:33:30.672Z,25.28
2017-11-06T09:35:58.427Z,24.73
2017-11-06T09:38:26.150Z,23.60
2017-11-06T09:40:53.851Z,23.36
2017-11-06T09:43:21.488Z,22.81
2017-11-06T09:45:49.111Z,23.74
2017-11-06T09:48:16.878Z,23.57
2017-11-06T09:50:44.500Z,23.94
2017-11-06T09:53:12.083Z,22.23
2017-11-06T09:55:39.667Z,22.48
2017-11-06T09:58:07.233Z,22.92
2017-11-06T10:00:34.835Z,20.95
2017-11-06T10:03:03.136Z,20.50
2017-11-06T10:05:30.803Z,21.39
2017-11-06T10:07:58.399Z,21.18
2017-11-06T10:10:26.092Z,21.28
2017-11-06T10:12:53.892Z,21.15
2017-11-06T10:15:21.511Z,20.68
2017-11-06T10:17:49.250Z,20.66
2017-11-06T10:20:17.036Z,20.80
2017-11-06T10:22:45.288Z,21.21
2017-11-06T10:25:13.118Z,20.93
2017-11-06T10:27:42.514Z,19.86
2017-11-06T10:30:10.471Z,18.96
2017-11-06T10:32:38.251Z,19.89
2017-11-06T10:35:05.903Z,19.56
2017-11-06T10:37:33.546Z,19.61
2017-11-06T10:40:01.216Z,19.66
2017-11-06T10:42:28.872Z,19.62
2017-11-06T10:44:56.550Z,19.17
2017-11-06T10:47:24.360Z,19.34
2017-11-06T10:49:51.978Z,18.82
2017-11-06T10:52:19.581Z,19.14
2017-11-06T10:54:47.227Z,18.26
2017-11-06T10:57:16.229Z,18.80
2017-11-06T10:59:43.974Z,18.86
2017-11-06T11:02:11.573Z,19.47
2017-11-06T11:04:39.187Z,19.98
2017-11-06T11:07:06.821Z,20.15
2017-11-06T11:09:34.430Z,20.25
2017-11-06T11:12:02.098Z,20.45
2017-11-06T11:14:29.783Z,19.14
2017-11-06T11:16:57.425Z,19.04
2017-11-06T11:19:24.991Z,19.23
2017-11-06T11:21:52.605Z,18.25
2017-11-06T11:24:20.765Z,18.38
2017-11-06T11:26:48.394Z,18.48
2017-11-06T11:29:16.341Z,18.84
2017-11-06T11:31:44.288Z,18.74
2017-11-06T11:34:11.882Z,18.93
2017-11-06T11:36:39.530Z,19.32
2017-11-06T11:39:07.164Z,19.34
2017-11-06T11:41:34.891Z,19.67
2017-11-06T11:44:02.796Z,19.97
2017-11-06T11:46:30.423Z,20.23
2017-11-06T11:48:58.023Z,20.53
2017-11-06T11:51:25.653Z,20.62
2017-11-06T11:53:53.289Z,19.87
2017-11-06T11:56:20.889Z,19.52
2017-11-06T11:58:48.459Z,19.64
2017-11-06T12:01:16.115Z,19.98
2017-11-06T12:03:43.722Z,19.11
2017-11-06T12:06:16.391Z,19.52
2017-11-06T12:08:43.996Z,19.70
2017-11-06T12:11:11.777Z,19.37
2017-11-06T12:13:39.426Z,18.68
2017-11-06T12:16:07.226Z,18.45
2017-11-06T12:18:38.215Z,17.59
2017-11-06T12:21:06.052Z,17.79
2017-11-06T12:23:33.802Z,18.06
2017-11-06T12:26:01.436Z,18.30
2017-11-06T12:28:29.067Z,17.88
2017-11-06T12:30:56.696Z,18.12
2017-11-06T12:33:25.579Z,18.01
2017-11-06T12:35:53.323Z,17.98
2017-11-06T12:38:20.982Z,18.03
2017-11-06T12:40:48.600Z,17.90
2017-11-06T12:43:16.305Z,17.84
2017-11-06T12:45:43.897Z,17.66
2017-11-06T12:48:11.532Z,17.60
2017-11-06T12:50:39.128Z,17.54
2017-11-06T12:53:06.696Z,17.34
2017-11-06T12:55:34.304Z,17.51
2017-11-06T12:58:01.896Z,17.18
2017-11-06T13:00:29.812Z,17.53
2017-11-06T13:02:57.446Z,17.45
2017-11-06T13:05:24.995Z,17.26
2017-11-06T13:07:52.738Z,16.69
2017-11-06T13:10:20.408Z,16.73
2017-11-06T13:12:48.101Z,17.13
2017-11-06T13:15:15.717Z,17.02
2017-11-06T13:17:43.349Z,16.97
2017-11-06T13:20:10.972Z,16.87
2017-11-06T13:22:38.654Z,16.35
2017-11-06T13:25:06.260Z,16.58
2017-11-06T13:27:34.046Z,16.41
2017-11-06T13:30:02.026Z,16.50
2017-11-06T13:32:29.884Z,16.39
2017-11-06T13:34:57.533Z,16.33
2017-11-06T13:37:25.094Z,16.06
2017-11-06T13:39:52.813Z,15.62
2017-11-06T13:42:20.640Z,15.50
2017-11-06T13:44:48.423Z,15.75
2017-11-06T13:47:16.025Z,15.53
2017-11-06T13:49:43.658Z,15.53
2017-11-06T13:52:11.249Z,15.50
2017-11-06T13:54:38.982Z,15.50
2017-11-06T13:57:06.821Z,15.31
2017-11-06T13:59:34.666Z,15.38
2017-11-06T14:02:02.564Z,15.21
2017-11-06T14:04:30.160Z,14.96
2017-11-06T14:06:57.992Z,14.79
2017-11-06T14:09:25.661Z,14.64
2017-11-06T14:11:53.370Z,14.51
2017-11-06T14:14:20.965Z,14.47
2017-11-06T14:16:48.602Z,14.57
2017-11-06T14:19:16.383Z,14.30
2017-11-06T14:21:44.054Z,14.33
2017-11-06T14:24:11.708Z,14.22
2017-11-06T14:26:39.571Z,14.23
2017-11-06T14:29:07.148Z,14.28
2017-11-06T14:31:34.914Z,14.30
2017-11-06T14:34:03.385Z,14.27
2017-11-06T14:36:31.221Z,14.07
2017-11-06T14:38:59.089Z,14.00
2017-11-06T14:41:26.887Z,13.93
2017-11-06T14:43:54.707Z,13.93
2017-11-06T14:46:22.400Z,13.76
2017-11-06T14:48:51.050Z,13.45
2017-11-06T14:51:18.666Z,13.62
2017-11-06T14:53:46.351Z,13.60
2017-11-06T14:56:14.144Z,13.44
2017-11-06T14:58:41.991Z,13.29
2017-11-06T15:01:09.866Z,13.33
2017-11-06T15:03:37.554Z,13.12
2017-11-06T15:06:05.214Z,13.25
2017-11-06T15:08:32.877Z,13.34
2017-11-06T15:11:01.689Z,13.38
2017-11-06T15:13:29.504Z,13.24
2017-11-06T15:15:57.308Z,13.16
2017-11-06T15:18:24.959Z,13.19
2017-11-06T15:20:52.596Z,12.95
2017-11-06T15:23:22.069Z,12.99
2017-11-06T15:25:50.078Z,13.09
2017-11-06T15:28:17.704Z,12.70
2017-11-06T15:30:45.531Z,13.01
2017-11-06T15:33:13.303Z,12.89
2017-11-06T15:35:40.944Z,12.90
2017-11-06T15:38:10.949Z,12.70
2017-11-06T15:40:39.335Z,12.58
2017-11-06T15:43:06.993Z,12.39
2017-11-06T15:45:34.620Z,12.67
2017-11-06T15:48:03.017Z,12.43
2017-11-06T15:50:31.076Z,12.50
2017-11-06T15:52:59.890Z,12.46
2017-11-06T15:55:27.808Z,12.40
2017-11-06T15:57:55.421Z,12.08
2017-11-06T16:00:23.387Z,12.10
2017-11-06T16:02:50.975Z,11.99
2017-11-06T16:05:19.870Z,11.93
2017-11-06T16:07:47.521Z,12.06
2017-11-06T16:10:15.094Z,12.00
2017-11-06T16:12:42.748Z,11.86
2017-11-06T16:15:10.359Z,11.84
2017-11-06T16:17:38.146Z,11.72
2017-11-06T16:20:05.730Z,11.62
2017-11-06T16:22:33.334Z,11.50
2017-11-06T16:25:00.911Z,11.29
2017-11-06T16:27:28.447Z,11.20
2017-11-06T16:29:56.049Z,10.92
2017-11-06T16:32:23.973Z,10.80
2017-11-06T16:34:51.743Z,10.75
2017-11-06T16:37:19.527Z,10.77
2017-11-06T16:39:47.166Z,10.84
2017-11-06T16:42:14.947Z,10.68
2017-11-06T16:44:43.311Z,10.61
2017-11-06T16:47:12.022Z,10.52
2017-11-06T16:49:39.594Z,10.46
2017-11-06T16:52:07.430Z,10.37
2017-11-06T16:54:35.181Z,10.26
2017-11-06T16:57:02.970Z,10.35
2017-11-06T16:59:30.627Z,10.09
2017-11-06T17:01:58.569Z,10.05
2017-11-06T17:04:26.503Z,9.97
2017-11-06T17:06:56.124Z,9.96
2017-11-06T17:09:24.026Z,9.78
2017-11-06T17:11:52.803Z,9.99
2017-11-06T17:14:20.421Z,9.84
2017-11-06T17:16:48.090Z,9.74
2017-11-06T17:19:16.510Z,9.83
2017-11-06T17:21:44.298Z,10.02
2017-11-06T17:24:11.977Z,9.78
2017-11-06T17:26:39.846Z,9.78
2017-11-06T17:29:07.629Z,9.74
2017-11-06T17:31:35.239Z,9.77
2017-11-06T17:34:02.891Z,9.58
2017-11-06T17:36:30.720Z,9.88
2017-11-06T17:38:58.624Z,9.87
2017-11-06T17:41:26.298Z,9.71
2017-11-06T17:43:54.031Z,9.84
2017-11-06T17:46:21.685Z,9.90
2017-11-06T17:48:49.388Z,9.85
2017-11-06T17:51:17.053Z,9.78
2017-11-06T17:53:44.721Z,9.83
2017-11-06T17:56:12.494Z,9.58
2017-11-06T17:58:40.205Z,9.54
2017-11-06T18:01:08.131Z,9.77
2017-11-06T18:03:35.879Z,9.51
2017-11-06T18:06:04.577Z,9.31
2017-11-06T18:08:32.293Z,9.58
2017-11-06T18:10:59.979Z,9.47
2017-11-06T18:13:27.618Z,9.35
2017-11-06T18:15:55.357Z,9.43
2017-11-06T18:18:23.020Z,9.36
2017-11-06T18:20:50.610Z,9.67
2017-11-06T18:23:18.302Z,9.65
2017-11-06T18:25:46.448Z,9.72
2017-11-06T18:28:14.086Z,9.54
2017-11-06T18:30:41.734Z,9.25
2017-11-06T18:33:09.272Z,9.46
2017-11-06T18:35:36.868Z,9.57
2017-11-06T18:38:04.968Z,9.38
2017-11-06T18:40:32.565Z,9.26
2017-11-06T18:43:00.599Z,9.01
2017-11-06T18:45:29.208Z,9.08
2017-11-06T18:47:56.905Z,8.85
2017-11-06T18:50:24.760Z,9.32
2017-11-06T18:52:52.452Z,9.15
2017-11-06T18:55:20.253Z,9.09
2017-11-06T18:57:48.084Z,8.98
2017-11-06T19:00:15.764Z,8.69
2017-11-06T19:02:43.384Z,8.69
2017-11-06T19:05:11.067Z,8.74
2017-11-06T19:07:38.739Z,8.79
2017-11-06T19:10:06.341Z,8.85
2017-11-06T19:12:33.966Z,8.78
2017-11-06T19:15:01.760Z,8.64
2017-11-06T19:17:29.347Z,8.70
2017-11-06T19:19:57.193Z,8.60
2017-11-06T19:22:24.881Z,8.63
2017-11-06T19:24:52.632Z,8.59
2017-11-06T19:27:20.201Z,8.63
2017-11-06T19:29:49.459Z,8.57
2017-11-06T19:32:17.104Z,8.52
2017-11-06T19:34:44.923Z,8.32
2017-11-06T19:37:12.568Z,8.28
2017-11-06T19:39:40.205Z,8.46
2017-11-06T19:42:07.811Z,8.21
2017-11-06T19:44:35.391Z,8.16
2017-11-06T19:47:03.049Z,8.19
2017-11-06T19:49:30.819Z,8.44
2017-11-06T19:51:58.591Z,8.32
2017-11-06T19:54:26.241Z,8.06
2017-11-06T19:56:54.016Z,8.62
2017-11-06T19:59:21.625Z,8.55
2017-11-06T20:01:49.237Z,8.24
2017-11-06T20:04:17.155Z,8.20
2017-11-06T20:06:45.207Z,8.43
2017-11-06T20:09:12.811Z,8.40
2017-11-06T20:11:40.422Z,8.26
2017-11-06T20:14:08.040Z,8.49
2017-11-06T20:16:35.740Z,8.40
2017-11-06T20:19:04.272Z,8.56
2017-11-06T20:21:32.064Z,8.26
2017-11-06T20:23:59.757Z,8.49
2017-11-06T20:26:27.612Z,8.58
2017-11-06T20:28:55.346Z,8.65
2017-11-06T20:31:23.052Z,8.56
2017-11-06T20:36:17.598Z,8.62
2017-11-06T20:38:45.293Z,8.57
2017-11-06T20:41:12.882Z,8.57
2017-11-06T20:43:40.509Z,8.77
2017-11-06T20:46:08.183Z,8.80
2017-11-06T20:48:36.083Z,8.74
2017-11-06T20:51:03.765Z,8.63
2017-11-06T20:53:31.354Z,8.92
2017-11-06T20:55:58.957Z,8.99
2017-11-06T20:58:26.756Z,8.95
2017-11-06T21:00:54.429Z,8.71
2017-11-06T21:03:22.373Z,8.80
2017-11-06T21:05:49.991Z,8.70
2017-11-06T21:08:17.631Z,8.54
2017-11-06T21:10:45.217Z,8.65
2017-11-06T21:13:13.029Z,8.96
2017-11-06T21:15:40.736Z,9.01
2017-11-06T21:18:08.494Z,9.08
2017-11-06T21:20:36.118Z,8.58
2017-11-06T21:23:03.757Z,8.47
2017-11-06T21:25:31.658Z,8.46
2017-11-06T21:27:59.253Z,8.44
2017-11-06T21:30:32.681Z,8.32
2017-11-06T21:33:00.248Z,8.55
2017-11-06T21:35:27.871Z,8.37
2017-11-06T21:37:55.488Z,8.49
2017-11-06T21:40:24.180Z,8.18
2017-11-06T21:42:51.742Z,8.13
2017-11-06T21:45:19.368Z,8.12
2017-11-06T21:47:47.213Z,8.21
2017-11-06T21:50:14.769Z,8.45
2017-11-06T21:52:42.426Z,8.51
2017-11-06T21:55:10.005Z,8.66
2017-11-06T21:57:37.650Z,8.46
2017-11-06T22:00:08.577Z,8.45
2017-11-06T22:02:36.350Z,8.34
2017-11-06T22:05:04.769Z,8.34
2017-11-06T22:07:32.431Z,8.21
2017-11-06T22:10:00.062Z,8.05
2017-11-06T22:12:27.907Z,8.42
2017-11-06T22:14:55.559Z,7.98
2017-11-06T22:17:23.184Z,7.80
2017-11-06T22:19:50.802Z,7.82
2017-11-06T22:22:18.513Z,8.12
2017-11-06T22:24:46.145Z,8.04
2017-11-06T22:27:13.745Z,7.94
2017-11-06T22:29:41.349Z,7.78
2017-11-06T22:32:08.957Z,7.74
2017-11-06T22:34:36.850Z,7.68
2017-11-06T22:37:04.776Z,7.77
2017-11-06T22:39:32.379Z,7.92
2017-11-06T22:42:00.110Z,8.08
2017-11-06T22:44:27.739Z,7.88
2017-11-06T22:46:55.387Z,7.74
2017-11-06T22:49:23.232Z,7.90
2017-11-06T22:51:51.140Z,8.13
2017-11-06T22:54:18.808Z,7.89
2017-11-06T22:56:46.479Z,8.08
2017-11-06T22:59:14.082Z,8.21
2017-11-06T23:01:41.688Z,8.06
2017-11-06T23:04:09.240Z,8.28
